createdAt,value
2022-08-22T00:20:57.588Z,17.2
2022-08-22T00:30:58.336Z,17
2022-08-22T01:11:00.148Z,16.5
2022-08-22T01:31:00.841Z,16.2
2022-08-22T02:21:04.001Z,15.6
2022-08-22T02:31:04.778Z,15.4
2022-08-22T02:41:05.114Z,15.3
2022-08-22T02:51:05.886Z,15.2
2022-08-22T03:31:09.090Z,14.9
2022-08-22T03:41:10.167Z,14.9
2022-08-22T03:51:10.689Z,14.8
2022-08-22T04:01:11.537Z,14.7
2022-08-22T04:11:11.928Z,14.6
2022-08-22T04:31:13.277Z,14.6
2022-08-22T04:41:13.692Z,14.6
2022-08-22T04:51:13.937Z,14.8
2022-08-22T05:11:14.756Z,15.4
2022-08-22T05:21:15.382Z,15.7
2022-08-22T05:31:16.110Z,16.1
2022-08-22T05:41:16.640Z,16.4
2022-08-22T05:51:17.486Z,16.6
2022-08-22T06:01:18.281Z,16.9
2022-08-22T06:11:19.281Z,17.2
2022-08-22T06:21:19.434Z,17.4
2022-08-22T06:31:20.514Z,17.6
2022-08-22T06:41:21.264Z,17.7
2022-08-22T06:51:22.249Z,17.8
2022-08-22T07:01:23.085Z,18
2022-08-22T07:11:23.373Z,18.5
2022-08-22T07:21:23.733Z,18.9
2022-08-22T07:31:24.400Z,19.2
2022-08-22T07:41:25.272Z,19.3
2022-08-22T07:51:25.631Z,19.5
2022-08-22T08:01:26.284Z,19.7
2022-08-22T08:11:26.274Z,19.9
2022-08-22T08:21:26.989Z,20.1
2022-08-22T08:31:27.487Z,20.6
2022-08-22T08:41:27.970Z,20.8
2022-08-22T08:51:28.154Z,21.2
2022-08-22T09:01:28.591Z,21.7
2022-08-22T09:11:28.769Z,21.9
2022-08-22T09:21:30.926Z,22.2
2022-08-22T09:31:33.166Z,22.7
2022-08-22T09:41:30.503Z,23.5
2022-08-22T09:51:33.026Z,24.2
2022-08-22T10:01:32.700Z,24.9
2022-08-22T10:11:32.340Z,25.3
2022-08-22T10:21:33.244Z,25.5
2022-08-22T10:31:33.621Z,26.1
2022-08-22T10:41:34.436Z,26.3
2022-08-22T10:51:34.891Z,26.5
2022-08-22T11:01:37.373Z,26.3
2022-08-22T11:11:35.808Z,27.1
2022-08-22T11:21:36.404Z,27.5
2022-08-22T11:31:37.469Z,27.2
2022-08-22T11:41:38.119Z,26.4
2022-08-22T11:51:38.327Z,27.3
2022-08-22T12:01:39.179Z,26.8
2022-08-22T12:11:39.702Z,26.2
2022-08-22T12:31:41.432Z,26.5
2022-08-22T12:51:42.657Z,26.6
2022-08-22T13:01:43.846Z,26.8
2022-08-22T13:11:43.853Z,27.1
2022-08-22T13:21:44.785Z,27.3
2022-08-22T13:31:45.860Z,27.5
2022-08-22T13:41:46.264Z,27.5
2022-08-22T13:51:47.015Z,27.4
2022-08-22T14:01:47.660Z,27.5
2022-08-22T14:11:48.367Z,27.4
2022-08-22T14:31:50.095Z,27.3
2022-08-22T14:41:52.228Z,27.3
2022-08-22T14:51:51.055Z,27.5
2022-08-22T15:01:51.137Z,27.5
2022-08-22T15:11:51.801Z,27.4
2022-08-22T15:41:54.342Z,28.3
2022-08-22T15:51:54.860Z,29.1
2022-08-22T16:11:56.542Z,27.5
2022-08-22T16:31:57.684Z,27
2022-08-22T16:41:58.538Z,26.9
2022-08-22T16:51:59.466Z,27.1
2022-08-22T17:01:59.796Z,27.3
2022-08-22T17:12:00.420Z,27
2022-08-22T17:22:01.340Z,26.6
2022-08-22T17:32:01.727Z,26.2
2022-08-22T17:52:02.036Z,25.5
2022-08-22T18:12:03.884Z,24.9
2022-08-22T18:22:04.590Z,24.7
2022-08-22T18:32:05.122Z,24.5
2022-08-22T18:42:05.503Z,24.2
2022-08-22T18:52:05.984Z,24
2022-08-22T19:02:06.788Z,24
2022-08-22T19:12:07.109Z,23.8
2022-08-22T19:22:07.900Z,23.6
2022-08-22T19:42:08.359Z,23
2022-08-22T19:52:08.650Z,22.8
2022-08-22T20:02:08.805Z,22.7
2022-08-22T20:12:13.338Z,22.6
2022-08-22T20:22:10.242Z,22.4
2022-08-22T20:32:10.542Z,22.2
2022-08-22T20:42:11.507Z,21.9
2022-08-22T20:52:12.437Z,21.7
2022-08-22T21:02:12.880Z,21.5
2022-08-22T21:12:13.459Z,21.5
2022-08-22T21:22:13.840Z,21.5
2022-08-22T21:32:14.158Z,21.4
2022-08-22T21:42:14.601Z,21.4
2022-08-22T21:52:15.635Z,21.5
2022-08-22T22:02:15.835Z,21.2
2022-08-22T22:12:16.161Z,21.2
2022-08-22T22:22:16.576Z,21.2
2022-08-22T22:32:17.015Z,21.1
2022-08-22T22:42:18.087Z,20.9
2022-08-22T22:52:19.098Z,20.6
2022-08-22T23:02:20.047Z,20.4
2022-08-22T23:32:22.448Z,20
2022-08-22T23:42:23.224Z,20
2022-08-22T23:52:24.053Z,20
